sensor_id;sensor_type;location;lat;lon;timestamp;temperature;humidity
8872;DHT22;4472;52.092;9.820;2023-02-15T00:00:00;3.50;99.90
8872;DHT22;4472;52.092;9.820;2023-02-15T00:02:47;3.80;99.90
8872;DHT22;4472;52.092;9.820;2023-02-15T00:05:36;3.80;99.90
8872;DHT22;4472;52.092;9.820;2023-02-15T00:08:23;3.90;99.90
8872;DHT22;4472;52.092;9.820;2023-02-15T00:11:12;3.90;99.90
8872;DHT22;4472;52.092;9.820;2023-02-15T00:14:00;4.00;99.90
8872;DHT22;4472;52.092;9.820;2023-02-15T00:16:48;3.90;99.90
8872;DHT22;4472;52.092;9.820;2023-02-15T00:19:36;3.80;99.90
8872;DHT22;4472;52.092;9.820;2023-02-15T00:22:25;3.80;99.90
8872;DHT22;4472;52.092;9.820;2023-02-15T00:25:12;3.80;99.90
8872;DHT22;4472;52.092;9.820;2023-02-15T00:28:00;3.70;99.90
8872;DHT22;4472;52.092;9.820;2023-02-15T00:30:47;3.50;99.90
8872;DHT22;4472;52.092;9.820;2023-02-15T00:33:34;3.60;99.90
8872;DHT22;4472;52.092;9.820;2023-02-15T00:36:22;3.60;99.90
8872;DHT22;4472;52.092;9.820;2023-02-15T00:39:11;3.70;99.90
8872;DHT22;4472;52.092;9.820;2023-02-15T00:41:58;3.80;99.90
8872;DHT22;4472;52.092;9.820;2023-02-15T00:44:45;3.90;99.90
8872;DHT22;4472;52.092;9.820;2023-02-15T00:47:32;3.70;99.90
8872;DHT22;4472;52.092;9.820;2023-02-15T00:50:20;3.60;99.90
8872;DHT22;4472;52.092;9.820;2023-02-15T00:53:07;3.50;99.90
8872;DHT22;4472;52.092;9.820;2023-02-15T00:55:56;3.40;99.90
8872;DHT22;4472;52.092;9.820;2023-02-15T00:58:43;3.40;99.90
8872;DHT22;4472;52.092;9.820;2023-02-15T01:01:30;3.30;99.90
8872;DHT22;4472;52.092;9.820;2023-02-15T01:04:17;3.20;99.90
8872;DHT22;4472;52.092;9.820;2023-02-15T01:07:04;3.20;99.90
8872;DHT22;4472;52.092;9.820;2023-02-15T01:09:52;3.00;99.90
8872;DHT22;4472;52.092;9.820;2023-02-15T01:12:40;3.10;99.90
8872;DHT22;4472;52.092;9.820;2023-02-15T01:15:28;3.00;99.90
8872;DHT22;4472;52.092;9.820;2023-02-15T01:18:15;3.00;99.90
8872;DHT22;4472;52.092;9.820;2023-02-15T01:21:10;2.90;99.90
8872;DHT22;4472;52.092;9.820;2023-02-15T01:23:57;2.90;99.90
8872;DHT22;4472;52.092;9.820;2023-02-15T01:26:44;2.70;99.90
8872;DHT22;4472;52.092;9.820;2023-02-15T01:29:33;2.90;99.90
8872;DHT22;4472;52.092;9.820;2023-02-15T01:32:20;2.90;99.90
8872;DHT22;4472;52.092;9.820;2023-02-15T01:35:08;2.80;99.90
8872;DHT22;4472;52.092;9.820;2023-02-15T01:37:55;2.80;99.90
8872;DHT22;4472;52.092;9.820;2023-02-15T01:40:44;3.00;99.90
8872;DHT22;4472;52.092;9.820;2023-02-15T01:43:40;2.80;99.90
8872;DHT22;4472;52.092;9.820;2023-02-15T01:46:32;2.80;99.90
8872;DHT22;4472;52.092;9.820;2023-02-15T01:49:23;2.70;99.90
8872;DHT22;4472;52.092;9.820;2023-02-15T01:52:13;2.70;99.90
8872;DHT22;4472;52.092;9.820;2023-02-15T01:57:51;2.70;99.90
8872;DHT22;4472;52.092;9.820;2023-02-15T02:00:38;2.70;99.90
8872;DHT22;4472;52.092;9.820;2023-02-15T02:03:33;2.70;99.90
8872;DHT22;4472;52.092;9.820;2023-02-15T02:06:24;2.60;99.90
8872;DHT22;4472;52.092;9.820;2023-02-15T02:09:11;2.90;99.90
8872;DHT22;4472;52.092;9.820;2023-02-15T02:11:58;2.70;99.90
8872;DHT22;4472;52.092;9.820;2023-02-15T02:14:47;2.30;99.90
8872;DHT22;4472;52.092;9.820;2023-02-15T02:17:42;2.20;99.90
8872;DHT22;4472;52.092;9.820;2023-02-15T02:20:56;2.20;99.90
8872;DHT22;4472;52.092;9.820;2023-02-15T02:24:15;2.10;99.90
8872;DHT22;4472;52.092;9.820;2023-02-15T02:27:33;2.10;99.90
8872;DHT22;4472;52.092;9.820;2023-02-15T02:33:54;2.30;99.90
8872;DHT22;4472;52.092;9.820;2023-02-15T02:36:49;2.30;99.90
8872;DHT22;4472;52.092;9.820;2023-02-15T02:39:46;2.40;99.90
8872;DHT22;4472;52.092;9.820;2023-02-15T02:42:39;2.50;99.90
8872;DHT22;4472;52.092;9.820;2023-02-15T02:45:32;2.60;99.90
8872;DHT22;4472;52.092;9.820;2023-02-15T02:48:25;2.60;99.90
8872;DHT22;4472;52.092;9.820;2023-02-15T02:51:14;2.60;99.90
8872;DHT22;4472;52.092;9.820;2023-02-15T02:54:07;2.60;99.90
8872;DHT22;4472;52.092;9.820;2023-02-15T02:56:56;2.70;99.90
8872;DHT22;4472;52.092;9.820;2023-02-15T02:59:46;2.80;99.90
8872;DHT22;4472;52.092;9.820;2023-02-15T03:02:37;2.70;99.90
8872;DHT22;4472;52.092;9.820;2023-02-15T03:05:27;2.70;99.90
8872;DHT22;4472;52.092;9.820;2023-02-15T03:08:18;2.60;99.90
8872;DHT22;4472;52.092;9.820;2023-02-15T03:11:07;2.60;99.90
8872;DHT22;4472;52.092;9.820;2023-02-15T03:13:55;3.00;99.90
8872;DHT22;4472;52.092;9.820;2023-02-15T03:16:45;2.80;99.90
8872;DHT22;4472;52.092;9.820;2023-02-15T03:19:34;2.80;99.90
8872;DHT22;4472;52.092;9.820;2023-02-15T03:22:26;2.90;99.90
8872;DHT22;4472;52.092;9.820;2023-02-15T03:25:19;2.70;99.90
8872;DHT22;4472;52.092;9.820;2023-02-15T03:28:11;2.70;99.90
8872;DHT22;4472;52.092;9.820;2023-02-15T03:31:02;2.70;99.90
8872;DHT22;4472;52.092;9.820;2023-02-15T03:33:53;3.60;99.90
8872;DHT22;4472;52.092;9.820;2023-02-15T03:36:45;2.60;99.90
8872;DHT22;4472;52.092;9.820;2023-02-15T03:39:35;2.60;99.90
8872;DHT22;4472;52.092;9.820;2023-02-15T03:42:29;2.60;99.90
8872;DHT22;4472;52.092;9.820;2023-02-15T03:45:22;2.80;99.90
8872;DHT22;4472;52.092;9.820;2023-02-15T03:48:11;2.50;99.90
8872;DHT22;4472;52.092;9.820;2023-02-15T03:51:02;2.50;99.90
8872;DHT22;4472;52.092;9.820;2023-02-15T03:54:11;2.50;99.90
8872;DHT22;4472;52.092;9.820;2023-02-15T03:56:59;2.60;99.90
8872;DHT22;4472;52.092;9.820;2023-02-15T04:00:06;2.50;99.90
8872;DHT22;4472;52.092;9.820;2023-02-15T04:03:22;2.60;99.90
8872;DHT22;4472;52.092;9.820;2023-02-15T04:06:10;2.80;99.90
8872;DHT22;4472;52.092;9.820;2023-02-15T04:08:57;2.50;99.90
8872;DHT22;4472;52.092;9.820;2023-02-15T04:12:02;2.50;99.90
8872;DHT22;4472;52.092;9.820;2023-02-15T04:14:50;2.50;99.90
8872;DHT22;4472;52.092;9.820;2023-02-15T04:17:56;2.50;99.90
8872;DHT22;4472;52.092;9.820;2023-02-15T04:20:43;2.60;99.90
8872;DHT22;4472;52.092;9.820;2023-02-15T04:23:48;2.50;99.90
8872;DHT22;4472;52.092;9.820;2023-02-15T04:26:53;2.50;99.90
8872;DHT22;4472;52.092;9.820;2023-02-15T04:29:41;2.40;99.90
8872;DHT22;4472;52.092;9.820;2023-02-15T04:32:28;2.40;99.90
8872;DHT22;4472;52.092;9.820;2023-02-15T04:35:17;2.60;99.90
8872;DHT22;4472;52.092;9.820;2023-02-15T04:38:04;2.40;99.90
8872;DHT22;4472;52.092;9.820;2023-02-15T04:40:52;2.30;99.90
8872;DHT22;4472;52.092;9.820;2023-02-15T04:43:39;2.30;99.90
8872;DHT22;4472;52.092;9.820;2023-02-15T04:46:27;2.20;99.90
8872;DHT22;4472;52.092;9.820;2023-02-15T04:49:15;2.30;99.90
8872;DHT22;4472;52.092;9.820;2023-02-15T04:52:03;2.10;99.90
8872;DHT22;4472;52.092;9.820;2023-02-15T04:54:51;2.20;99.90
8872;DHT22;4472;52.092;9.820;2023-02-15T04:57:38;2.20;99.90
8872;DHT22;4472;52.092;9.820;2023-02-15T05:00:25;2.10;99.90
8872;DHT22;4472;52.092;9.820;2023-02-15T05:03:13;2.10;99.90
8872;DHT22;4472;52.092;9.820;2023-02-15T05:06:00;2.40;99.90
8872;DHT22;4472;52.092;9.820;2023-02-15T05:08:48;2.10;99.90
8872;DHT22;4472;52.092;9.820;2023-02-15T05:11:36;2.10;99.90
8872;DHT22;4472;52.092;9.820;2023-02-15T05:14:23;2.10;99.90
8872;DHT22;4472;52.092;9.820;2023-02-15T05:17:10;2.00;99.90
8872;DHT22;4472;52.092;9.820;2023-02-15T05:19:57;2.10;99.90
8872;DHT22;4472;52.092;9.820;2023-02-15T05:22:44;2.10;99.90
8872;DHT22;4472;52.092;9.820;2023-02-15T05:25:33;2.00;99.90
8872;DHT22;4472;52.092;9.820;2023-02-15T05:31:25;2.00;99.90
8872;DHT22;4472;52.092;9.820;2023-02-15T05:34:13;2.10;99.90
8872;DHT22;4472;52.092;9.820;2023-02-15T05:37:00;1.90;99.90
8872;DHT22;4472;52.092;9.820;2023-02-15T05:42:36;1.90;99.90
8872;DHT22;4472;52.092;9.820;2023-02-15T05:45:23;1.80;99.90
8872;DHT22;4472;52.092;9.820;2023-02-15T05:48:10;2.00;99.90
8872;DHT22;4472;52.092;9.820;2023-02-15T05:50:58;1.90;99.90
8872;DHT22;4472;52.092;9.820;2023-02-15T05:53:45;1.90;99.90
8872;DHT22;4472;52.092;9.820;2023-02-15T05:56:33;1.80;99.90
8872;DHT22;4472;52.092;9.820;2023-02-15T05:59:21;1.80;99.90
8872;DHT22;4472;52.092;9.820;2023-02-15T08:02:47;2.10;99.90
8872;DHT22;4472;52.092;9.820;2023-02-15T08:05:56;2.40;99.90
8872;DHT22;4472;52.092;9.820;2023-02-15T08:08:44;2.40;99.90
8872;DHT22;4472;52.092;9.820;2023-02-15T08:14:23;2.40;99.90
8872;DHT22;4472;52.092;9.820;2023-02-15T08:17:10;2.50;99.90
8872;DHT22;4472;52.092;9.820;2023-02-15T08:19:57;2.40;99.90
8872;DHT22;4472;52.092;9.820;2023-02-15T08:22:45;2.50;99.90
8872;DHT22;4472;52.092;9.820;2023-02-15T08:25:32;2.50;99.90
8872;DHT22;4472;52.092;9.820;2023-02-15T08:28:19;2.60;99.90
8872;DHT22;4472;52.092;9.820;2023-02-15T08:31:11;2.70;99.90
8872;DHT22;4472;52.092;9.820;2023-02-15T08:33:59;2.80;99.90
8872;DHT22;4472;52.092;9.820;2023-02-15T08:36:47;2.90;99.90
8872;DHT22;4472;52.092;9.820;2023-02-15T08:39:34;3.00;99.90
8872;DHT22;4472;52.092;9.820;2023-02-15T08:42:21;3.20;99.90
8872;DHT22;4472;52.092;9.820;2023-02-15T08:45:09;3.30;99.90
8872;DHT22;4472;52.092;9.820;2023-02-15T08:48:22;3.80;99.90
8872;DHT22;4472;52.092;9.820;2023-02-15T08:51:32;4.00;99.90
8872;DHT22;4472;52.092;9.820;2023-02-15T08:54:20;3.80;99.90
8872;DHT22;4472;52.092;9.820;2023-02-15T08:57:08;3.90;99.90
8872;DHT22;4472;52.092;9.820;2023-02-15T08:59:56;4.10;99.90
8872;DHT22;4472;52.092;9.820;2023-02-15T09:02:45;4.00;99.90
8872;DHT22;4472;52.092;9.820;2023-02-15T09:05:39;4.20;99.90
8872;DHT22;4472;52.092;9.820;2023-02-15T09:08:27;4.40;99.90
8872;DHT22;4472;52.092;9.820;2023-02-15T09:11:16;4.50;99.90
8872;DHT22;4472;52.092;9.820;2023-02-15T09:14:09;4.70;99.90
8872;DHT22;4472;52.092;9.820;2023-02-15T09:16:59;4.70;99.90
8872;DHT22;4472;52.092;9.820;2023-02-15T09:19:46;4.90;99.90
8872;DHT22;4472;52.092;9.820;2023-02-15T09:22:35;5.10;99.90
8872;DHT22;4472;52.092;9.820;2023-02-15T09:25:22;4.90;99.90
8872;DHT22;4472;52.092;9.820;2023-02-15T09:28:09;5.00;99.90
8872;DHT22;4472;52.092;9.820;2023-02-15T09:30:56;5.20;99.90
8872;DHT22;4472;52.092;9.820;2023-02-15T09:33:45;5.70;99.90
8872;DHT22;4472;52.092;9.820;2023-02-15T09:36:33;5.40;99.90
8872;DHT22;4472;52.092;9.820;2023-02-15T09:39:23;5.50;99.90
8872;DHT22;4472;52.092;9.820;2023-02-15T09:45:46;5.50;99.90
8872;DHT22;4472;52.092;9.820;2023-02-15T09:48:40;5.50;99.90
8872;DHT22;4472;52.092;9.820;2023-02-15T09:55:01;5.60;99.90
8872;DHT22;4472;52.092;9.820;2023-02-15T09:57:57;5.30;99.90
8872;DHT22;4472;52.092;9.820;2023-02-15T10:00:54;5.60;99.90
8872;DHT22;4472;52.092;9.820;2023-02-15T10:04:03;5.60;99.90
8872;DHT22;4472;52.092;9.820;2023-02-15T10:07:00;6.10;99.90
8872;DHT22;4472;52.092;9.820;2023-02-15T10:09:59;6.90;99.90
8872;DHT22;4472;52.092;9.820;2023-02-15T10:13:02;5.50;99.90
8872;DHT22;4472;52.092;9.820;2023-02-15T10:16:03;5.70;99.90
8872;DHT22;4472;52.092;9.820;2023-02-15T10:19:00;5.80;99.90
8872;DHT22;4472;52.092;9.820;2023-02-15T10:21:59;5.30;99.90
8872;DHT22;4472;52.092;9.820;2023-02-15T10:25:09;6.00;99.90
8872;DHT22;4472;52.092;9.820;2023-02-15T10:28:05;6.50;99.90
8872;DHT22;4472;52.092;9.820;2023-02-15T10:30:55;6.00;99.90
8872;DHT22;4472;52.092;9.820;2023-02-15T10:33:48;6.30;99.90
8872;DHT22;4472;52.092;9.820;2023-02-15T10:36:59;6.30;99.90
8872;DHT22;4472;52.092;9.820;2023-02-15T10:39:56;6.30;99.90
8872;DHT22;4472;52.092;9.820;2023-02-15T10:43:06;6.20;99.90
8872;DHT22;4472;52.092;9.820;2023-02-15T10:46:06;6.80;99.90
8872;DHT22;4472;52.092;9.820;2023-02-15T10:49:26;6.20;99.90
8872;DHT22;4472;52.092;9.820;2023-02-15T10:52:29;4.40;99.90
8872;DHT22;4472;52.092;9.820;2023-02-15T10:55:27;6.30;99.90
8872;DHT22;4472;52.092;9.820;2023-02-15T10:58:28;6.70;99.90
8872;DHT22;4472;52.092;9.820;2023-02-15T11:01:19;6.60;99.90
8872;DHT22;4472;52.092;9.820;2023-02-15T11:04:48;6.70;99.90
8872;DHT22;4472;52.092;9.820;2023-02-15T11:07:40;6.90;99.90
8872;DHT22;4472;52.092;9.820;2023-02-15T11:10:31;6.90;99.90
8872;DHT22;4472;52.092;9.820;2023-02-15T11:13:26;6.90;99.90
8872;DHT22;4472;52.092;9.820;2023-02-15T11:16:17;7.10;99.90
8872;DHT22;4472;52.092;9.820;2023-02-15T11:19:09;7.20;99.90
8872;DHT22;4472;52.092;9.820;2023-02-15T11:22:01;7.50;99.90
8872;DHT22;4472;52.092;9.820;2023-02-15T11:24:50;7.40;99.90
8872;DHT22;4472;52.092;9.820;2023-02-15T11:27:40;7.50;99.90
8872;DHT22;4472;52.092;9.820;2023-02-15T11:30:38;7.50;99.90
8872;DHT22;4472;52.092;9.820;2023-02-15T11:33:33;7.50;99.90
8872;DHT22;4472;52.092;9.820;2023-02-15T11:36:24;7.50;99.90
8872;DHT22;4472;52.092;9.820;2023-02-15T11:39:15;7.50;99.90
8872;DHT22;4472;52.092;9.820;2023-02-15T11:42:09;7.30;99.90
8872;DHT22;4472;52.092;9.820;2023-02-15T11:45:01;7.20;99.90
8872;DHT22;4472;52.092;9.820;2023-02-15T11:47:50;7.20;99.90
8872;DHT22;4472;52.092;9.820;2023-02-15T11:50:46;7.10;99.90
8872;DHT22;4472;52.092;9.820;2023-02-15T11:53:36;7.00;99.90
8872;DHT22;4472;52.092;9.820;2023-02-15T11:56:26;7.20;99.90
8872;DHT22;4472;52.092;9.820;2023-02-15T11:59:21;7.50;99.90
8872;DHT22;4472;52.092;9.820;2023-02-15T12:02:16;7.40;99.90
8872;DHT22;4472;52.092;9.820;2023-02-15T12:05:09;7.30;99.90
8872;DHT22;4472;52.092;9.820;2023-02-15T12:08:01;7.50;99.90
8872;DHT22;4472;52.092;9.820;2023-02-15T12:11:00;8.00;99.90
8872;DHT22;4472;52.092;9.820;2023-02-15T12:13:57;7.90;99.90
8872;DHT22;4472;52.092;9.820;2023-02-15T12:16:46;8.60;99.90
8872;DHT22;4472;52.092;9.820;2023-02-15T12:19:38;8.70;99.90
8872;DHT22;4472;52.092;9.820;2023-02-15T12:22:31;8.40;99.90
8872;DHT22;4472;52.092;9.820;2023-02-15T12:25:22;7.80;99.90
8872;DHT22;4472;52.092;9.820;2023-02-15T12:28:25;8.00;99.90
8872;DHT22;4472;52.092;9.820;2023-02-15T12:31:21;9.00;99.90
8872;DHT22;4472;52.092;9.820;2023-02-15T12:34:11;7.80;99.90
8872;DHT22;4472;52.092;9.820;2023-02-15T12:37:02;8.00;99.90
8872;DHT22;4472;52.092;9.820;2023-02-15T12:39:57;7.90;99.90
8872;DHT22;4472;52.092;9.820;2023-02-15T12:42:45;8.40;99.90
8872;DHT22;4472;52.092;9.820;2023-02-15T12:45:33;8.60;99.90
8872;DHT22;4472;52.092;9.820;2023-02-15T12:48:21;8.30;99.90
8872;DHT22;4472;52.092;9.820;2023-02-15T12:51:12;8.90;99.90
8872;DHT22;4472;52.092;9.820;2023-02-15T12:57:25;8.30;99.90
8872;DHT22;4472;52.092;9.820;2023-02-15T13:00:27;8.80;99.90
8872;DHT22;4472;52.092;9.820;2023-02-15T13:03:19;8.10;99.90
8872;DHT22;4472;52.092;9.820;2023-02-15T13:06:07;9.00;99.90
8872;DHT22;4472;52.092;9.820;2023-02-15T13:08:58;9.20;99.90
8872;DHT22;4472;52.092;9.820;2023-02-15T13:11:46;8.70;99.90
8872;DHT22;4472;52.092;9.820;2023-02-15T13:14:35;8.90;99.90
8872;DHT22;4472;52.092;9.820;2023-02-15T13:17:25;8.70;99.90
8872;DHT22;4472;52.092;9.820;2023-02-15T13:20:17;9.20;99.90
8872;DHT22;4472;52.092;9.820;2023-02-15T13:23:09;8.70;99.90
8872;DHT22;4472;52.092;9.820;2023-02-15T13:26:04;9.50;99.90
8872;DHT22;4472;52.092;9.820;2023-02-15T13:28:54;8.80;99.90
8872;DHT22;4472;52.092;9.820;2023-02-15T13:31:44;8.80;99.90
8872;DHT22;4472;52.092;9.820;2023-02-15T13:34:34;9.50;99.90
8872;DHT22;4472;52.092;9.820;2023-02-15T13:37:34;9.00;99.90
8872;DHT22;4472;52.092;9.820;2023-02-15T13:40:27;8.90;99.90
8872;DHT22;4472;52.092;9.820;2023-02-15T13:43:25;8.90;99.90
8872;DHT22;4472;52.092;9.820;2023-02-15T13:46:22;9.30;99.90
8872;DHT22;4472;52.092;9.820;2023-02-15T13:52:53;9.00;99.90
8872;DHT22;4472;52.092;9.820;2023-02-15T13:55:47;9.10;99.90
8872;DHT22;4472;52.092;9.820;2023-02-15T13:59:05;9.50;99.90
8872;DHT22;4472;52.092;9.820;2023-02-15T14:01:58;9.50;99.90
8872;DHT22;4472;52.092;9.820;2023-02-15T14:05:12;9.40;99.90
8872;DHT22;4472;52.092;9.820;2023-02-15T14:08:08;9.00;99.90
8872;DHT22;4472;52.092;9.820;2023-02-15T14:11:02;9.70;99.90
8872;DHT22;4472;52.092;9.820;2023-02-15T14:17:18;9.20;99.90
8872;DHT22;4472;52.092;9.820;2023-02-15T14:20:14;8.90;99.90
8872;DHT22;4472;52.092;9.820;2023-02-15T14:23:11;10.00;99.90
8872;DHT22;4472;52.092;9.820;2023-02-15T14:26:05;9.00;99.90
8872;DHT22;4472;52.092;9.820;2023-02-15T14:28:59;9.80;99.90
8872;DHT22;4472;52.092;9.820;2023-02-15T14:31:53;9.70;99.90
8872;DHT22;4472;52.092;9.820;2023-02-15T14:34:45;9.00;99.90
8872;DHT22;4472;52.092;9.820;2023-02-15T14:37:41;9.70;99.90
8872;DHT22;4472;52.092;9.820;2023-02-15T14:40:40;9.40;99.90
8872;DHT22;4472;52.092;9.820;2023-02-15T14:43:54;9.60;99.90
8872;DHT22;4472;52.092;9.820;2023-02-15T14:46:48;9.10;99.90
8872;DHT22;4472;52.092;9.820;2023-02-15T14:49:38;9.40;99.90
8872;DHT22;4472;52.092;9.820;2023-02-15T14:52:26;9.40;99.90
8872;DHT22;4472;52.092;9.820;2023-02-15T14:55:37;9.30;99.90
8872;DHT22;4472;52.092;9.820;2023-02-15T14:58:24;9.30;99.90
8872;DHT22;4472;52.092;9.820;2023-02-15T15:01:12;9.40;99.90
8872;DHT22;4472;52.092;9.820;2023-02-15T15:04:00;9.30;99.90
8872;DHT22;4472;52.092;9.820;2023-02-15T15:07:00;9.40;99.90
8872;DHT22;4472;52.092;9.820;2023-02-15T15:09:58;9.40;99.90
8872;DHT22;4472;52.092;9.820;2023-02-15T15:12:48;9.30;99.90
8872;DHT22;4472;52.092;9.820;2023-02-15T15:15:45;9.30;99.90
8872;DHT22;4472;52.092;9.820;2023-02-15T15:18:44;9.30;99.90
8872;DHT22;4472;52.092;9.820;2023-02-15T15:21:56;9.30;99.90
8872;DHT22;4472;52.092;9.820;2023-02-15T15:24:53;9.20;99.90
8872;DHT22;4472;52.092;9.820;2023-02-15T15:27:46;9.10;99.90
8872;DHT22;4472;52.092;9.820;2023-02-15T15:31:03;9.00;99.90
8872;DHT22;4472;52.092;9.820;2023-02-15T15:34:33;9.00;99.90
8872;DHT22;4472;52.092;9.820;2023-02-15T15:37:55;8.90;99.90
8872;DHT22;4472;52.092;9.820;2023-02-15T15:41:17;8.90;99.90
8872;DHT22;4472;52.092;9.820;2023-02-15T15:47:34;8.70;99.90
8872;DHT22;4472;52.092;9.820;2023-02-15T15:50:27;8.80;99.90
8872;DHT22;4472;52.092;9.820;2023-02-15T15:53:19;8.60;99.90
8872;DHT22;4472;52.092;9.820;2023-02-15T15:56:11;8.50;99.90
8872;DHT22;4472;52.092;9.820;2023-02-15T15:59:01;8.60;99.90
8872;DHT22;4472;52.092;9.820;2023-02-15T16:01:49;8.30;99.90
8872;DHT22;4472;52.092;9.820;2023-02-15T16:04:38;8.20;99.90
8872;DHT22;4472;52.092;9.820;2023-02-15T16:07:26;8.30;99.90
8872;DHT22;4472;52.092;9.820;2023-02-15T16:10:21;8.10;99.90
8872;DHT22;4472;52.092;9.820;2023-02-15T16:13:13;8.00;99.90
8872;DHT22;4472;52.092;9.820;2023-02-15T16:16:01;7.80;99.90
8872;DHT22;4472;52.092;9.820;2023-02-15T16:18:48;7.90;99.90
8872;DHT22;4472;52.092;9.820;2023-02-15T16:21:37;7.80;99.90
8872;DHT22;4472;52.092;9.820;2023-02-15T16:24:37;7.70;99.90
8872;DHT22;4472;52.092;9.820;2023-02-15T16:27:33;7.40;99.90
8872;DHT22;4472;52.092;9.820;2023-02-15T16:30:31;7.00;99.90
8872;DHT22;4472;52.092;9.820;2023-02-15T16:33:19;7.20;99.90
8872;DHT22;4472;52.092;9.820;2023-02-15T16:39:20;7.10;99.90
8872;DHT22;4472;52.092;9.820;2023-02-15T16:44:57;6.80;99.90
8872;DHT22;4472;52.092;9.820;2023-02-15T16:47:51;6.60;99.90
8872;DHT22;4472;52.092;9.820;2023-02-15T16:50:40;6.70;99.90
8872;DHT22;4472;52.092;9.820;2023-02-15T16:53:33;6.50;99.90
8872;DHT22;4472;52.092;9.820;2023-02-15T16:56:24;6.40;99.90
8872;DHT22;4472;52.092;9.820;2023-02-15T16:59:24;6.40;99.90
8872;DHT22;4472;52.092;9.820;2023-02-15T17:02:16;6.30;99.90
8872;DHT22;4472;52.092;9.820;2023-02-15T17:08:13;6.00;99.90
8872;DHT22;4472;52.092;9.820;2023-02-15T17:11:11;6.00;99.90
8872;DHT22;4472;52.092;9.820;2023-02-15T17:14:19;5.80;99.90
8872;DHT22;4472;52.092;9.820;2023-02-15T17:17:12;5.80;99.90
8872;DHT22;4472;52.092;9.820;2023-02-15T17:20:01;5.60;99.90
8872;DHT22;4472;52.092;9.820;2023-02-15T17:40:20;5.20;99.90
8872;DHT22;4472;52.092;9.820;2023-02-15T17:51:38;4.90;99.90
8872;DHT22;4472;52.092;9.820;2023-02-15T17:54:25;4.70;99.90
8872;DHT22;4472;52.092;9.820;2023-02-15T17:57:30;4.70;99.90
8872;DHT22;4472;52.092;9.820;2023-02-15T18:00:20;4.50;99.90
8872;DHT22;4472;52.092;9.820;2023-02-15T18:03:37;4.50;99.90
8872;DHT22;4472;52.092;9.820;2023-02-15T18:06:44;4.40;99.90
8872;DHT22;4472;52.092;9.820;2023-02-15T18:09:49;4.30;99.90
8872;DHT22;4472;52.092;9.820;2023-02-15T18:12:55;4.20;99.90
8872;DHT22;4472;52.092;9.820;2023-02-15T18:15:42;4.30;99.90
8872;DHT22;4472;52.092;9.820;2023-02-15T18:18:30;4.00;99.90
8872;DHT22;4472;52.092;9.820;2023-02-15T18:21:17;3.90;99.90
8872;DHT22;4472;52.092;9.820;2023-02-15T18:24:12;3.90;99.90
8872;DHT22;4472;52.092;9.820;2023-02-15T18:27:00;3.80;99.90
8872;DHT22;4472;52.092;9.820;2023-02-15T18:29:47;3.80;99.90
8872;DHT22;4472;52.092;9.820;2023-02-15T18:32:36;3.70;99.90
8872;DHT22;4472;52.092;9.820;2023-02-15T18:35:27;3.70;99.90
8872;DHT22;4472;52.092;9.820;2023-02-15T18:38:16;3.50;99.90
8872;DHT22;4472;52.092;9.820;2023-02-15T18:41:05;3.60;99.90
8872;DHT22;4472;52.092;9.820;2023-02-15T18:43:52;3.50;99.90
8872;DHT22;4472;52.092;9.820;2023-02-15T18:46:54;3.50;99.90
8872;DHT22;4472;52.092;9.820;2023-02-15T18:52:53;3.40;99.90
8872;DHT22;4472;52.092;9.820;2023-02-15T18:59:00;3.30;99.90
8872;DHT22;4472;52.092;9.820;2023-02-15T19:05:00;3.10;99.90
8872;DHT22;4472;52.092;9.820;2023-02-15T19:07:54;4.70;99.90
8872;DHT22;4472;52.092;9.820;2023-02-15T19:10:41;3.10;99.90
8872;DHT22;4472;52.092;9.820;2023-02-15T19:13:29;3.10;99.90
8872;DHT22;4472;52.092;9.820;2023-02-15T19:16:26;2.90;99.90
8872;DHT22;4472;52.092;9.820;2023-02-15T19:19:14;3.10;99.90
8872;DHT22;4472;52.092;9.820;2023-02-15T19:22:01;3.50;99.90
8872;DHT22;4472;52.092;9.820;2023-02-15T19:24:49;3.00;99.90
8872;DHT22;4472;52.092;9.820;2023-02-15T19:27:36;3.10;99.90
8872;DHT22;4472;52.092;9.820;2023-02-15T19:30:26;3.10;99.90
8872;DHT22;4472;52.092;9.820;2023-02-15T19:33:17;3.90;99.90
8872;DHT22;4472;52.092;9.820;2023-02-15T19:36:06;2.90;99.90
8872;DHT22;4472;52.092;9.820;2023-02-15T19:38:58;3.00;99.90
8872;DHT22;4472;52.092;9.820;2023-02-15T19:41:45;3.10;99.90
8872;DHT22;4472;52.092;9.820;2023-02-15T19:44:32;3.00;99.90
8872;DHT22;4472;52.092;9.820;2023-02-15T19:47:20;2.90;99.90
8872;DHT22;4472;52.092;9.820;2023-02-15T19:50:13;3.00;99.90
8872;DHT22;4472;52.092;9.820;2023-02-15T19:53:01;2.90;99.90
8872;DHT22;4472;52.092;9.820;2023-02-15T19:55:49;2.90;99.90
8872;DHT22;4472;52.092;9.820;2023-02-15T19:58:36;2.90;99.90
8872;DHT22;4472;52.092;9.820;2023-02-15T20:01:24;2.80;99.90
8872;DHT22;4472;52.092;9.820;2023-02-15T20:04:11;2.80;99.90
8872;DHT22;4472;52.092;9.820;2023-02-15T20:07:01;2.80;99.90
8872;DHT22;4472;52.092;9.820;2023-02-15T20:09:51;2.80;99.90
8872;DHT22;4472;52.092;9.820;2023-02-15T20:12:38;2.90;99.90
8872;DHT22;4472;52.092;9.820;2023-02-15T20:15:28;2.90;99.90
8872;DHT22;4472;52.092;9.820;2023-02-15T20:18:16;2.70;99.90
8872;DHT22;4472;52.092;9.820;2023-02-15T20:21:03;2.70;99.90
8872;DHT22;4472;52.092;9.820;2023-02-15T20:23:54;2.80;99.90
8872;DHT22;4472;52.092;9.820;2023-02-15T20:26:41;2.70;99.90
8872;DHT22;4472;52.092;9.820;2023-02-15T20:29:28;2.80;99.90
8872;DHT22;4472;52.092;9.820;2023-02-15T20:32:15;2.80;99.90
8872;DHT22;4472;52.092;9.820;2023-02-15T20:35:03;3.00;99.90
8872;DHT22;4472;52.092;9.820;2023-02-15T20:40:40;3.00;99.90
8872;DHT22;4472;52.092;9.820;2023-02-15T20:43:47;3.20;99.90
8872;DHT22;4472;52.092;9.820;2023-02-15T20:46:35;3.40;99.90
8872;DHT22;4472;52.092;9.820;2023-02-15T20:49:22;3.50;99.90
8872;DHT22;4472;52.092;9.820;2023-02-15T20:52:16;3.50;99.90
8872;DHT22;4472;52.092;9.820;2023-02-15T20:55:13;3.50;99.90
8872;DHT22;4472;52.092;9.820;2023-02-15T20:58:04;3.50;99.90
8872;DHT22;4472;52.092;9.820;2023-02-15T21:00:57;3.50;99.90
